Time;durP1;ratioP1;P1;durP2;ratioP2;P2;SDS_P1;SDS_P2;PMS_P1;PMS_P2;Temp;Humidity;BMP_temperature;BMP_pressure;BME280_temperature;BME280_humidity;BME280_pressure;Samples;Min_cycle;Max_cycle;Signal;HPM_P1;HPM_P2
2022/12/07 00:01:13;;;;;;;99.55;33.78;;;3.10;93.90;;;;;;5031441;28;20453;-72
2022/12/07 00:03:39;;;;;;;94.45;30.35;;;3.20;94.00;;;;;;5031524;28;20026;-75
2022/12/07 00:06:07;;;;;;;92.50;30.33;;;3.00;93.90;;;;;;5037249;28;20512;-79
2022/12/07 00:08:34;;;;;;;100.25;33.15;;;2.80;94.70;;;;;;5029839;28;20112;-79
2022/12/07 00:11:08;;;;;;;112.88;34.53;;;2.90;94.60;;;;;;5031285;28;20045;-77
2022/12/07 00:13:35;;;;;;;96.22;31.65;;;3.00;94.60;;;;;;5030752;28;20031;-76
2022/12/07 00:16:29;;;;;;;103.00;33.17;;;3.00;94.30;;;;;;5031516;28;20378;-77
2022/12/07 00:18:55;;;;;;;112.43;33.15;;;2.90;94.80;;;;;;5031057;28;20042;-74
2022/12/07 00:21:23;;;;;;;120.03;35.85;;;2.90;94.70;;;;;;5031572;28;20413;-81
2022/12/07 00:23:50;;;;;;;99.60;33.47;;;3.00;94.70;;;;;;5030415;28;20826;-81
2022/12/07 00:26:17;;;;;;;105.28;33.65;;;3.00;94.50;;;;;;5025989;28;20389;-77
2022/12/07 00:28:47;;;;;;;111.00;38.13;;;3.10;94.30;;;;;;5029480;28;20044;-76
2022/12/07 00:31:14;;;;;;;96.70;33.80;;;3.10;94.30;;;;;;5030664;28;20068;-81
2022/12/07 00:33:39;;;;;;;91.10;32.67;;;3.10;94.20;;;;;;5029080;28;20041;-79
2022/12/07 00:36:14;;;;;;;94.50;33.03;;;3.10;94.30;;;;;;5031037;28;20033;-73
2022/12/07 00:38:40;;;;;;;95.05;32.17;;;3.10;94.20;;;;;;5029294;28;20292;-76
2022/12/07 00:41:11;;;;;;;84.88;31.00;;;3.10;94.20;;;;;;5030402;28;20063;-84
2022/12/07 00:43:36;;;;;;;94.93;31.92;;;3.10;94.20;;;;;;5029805;28;20120;-83
2022/12/07 00:46:02;;;;;;;96.40;32.83;;;3.10;94.10;;;;;;5029554;28;20520;-77
2022/12/07 00:48:28;;;;;;;96.63;32.30;;;3.10;94.20;;;;;;5030149;28;20044;-80
2022/12/07 00:50:54;;;;;;;88.88;29.63;;;3.10;94.20;;;;;;5030501;28;20034;-80
2022/12/07 00:53:20;;;;;;;108.20;33.70;;;3.10;94.30;;;;;;5030248;28;20041;-80
2022/12/07 00:55:46;;;;;;;111.78;34.28;;;3.10;94.20;;;;;;5032950;28;20033;-81
2022/12/07 00:58:11;;;;;;;137.13;34.30;;;3.10;94.20;;;;;;5030264;28;20037;-78
2022/12/07 01:00:39;;;;;;;111.37;31.43;;;3.10;94.30;;;;;;5030532;28;20048;-78
2022/12/07 01:03:06;;;;;;;117.75;33.03;;;3.00;94.40;;;;;;5030084;28;20103;-77
2022/12/07 01:05:31;;;;;;;116.05;34.97;;;3.10;94.40;;;;;;5030568;28;20037;-82
2022/12/07 01:07:57;;;;;;;104.93;33.00;;;3.10;94.40;;;;;;5030678;28;20033;-73
2022/12/07 01:10:23;;;;;;;108.18;31.70;;;3.10;94.50;;;;;;5030312;28;20300;-80
2022/12/07 01:12:48;;;;;;;83.77;29.30;;;3.10;94.40;;;;;;5042545;28;20501;-83
2022/12/07 01:15:14;;;;;;;90.57;29.00;;;3.10;94.30;;;;;;5030315;28;20026;-83
2022/12/07 01:17:40;;;;;;;90.20;27.75;;;3.10;94.30;;;;;;5028680;28;20568;-79
2022/12/07 01:20:06;;;;;;;84.03;28.63;;;3.10;94.20;;;;;;5029763;28;20034;-80
2022/12/07 01:22:39;;;;;;;82.60;29.35;;;3.10;94.20;;;;;;5029774;28;20375;-83
2022/12/07 01:25:07;;;;;;;89.93;28.95;;;3.10;94.30;;;;;;5029977;28;20068;-79
2022/12/07 01:27:33;;;;;;;99.07;31.13;;;3.10;94.20;;;;;;5029663;28;20496;-76
2022/12/07 01:29:59;;;;;;;;;;;3.10;94.10;;;;;;5032818;28;20033;-78
2022/12/07 01:32:25;;;;;;;104.40;30.05;;;3.10;94.20;;;;;;5027072;28;19939;-75
2022/12/07 01:34:51;;;;;;;102.03;31.63;;;3.10;94.30;;;;;;5029720;28;20409;-75
2022/12/07 01:37:16;;;;;;;119.05;33.08;;;3.10;94.20;;;;;;5029309;28;20037;-80
2022/12/07 01:39:42;;;;;;;128.68;35.08;;;3.10;94.20;;;;;;5030100;28;20025;-77
2022/12/07 01:42:11;;;;;;;134.95;33.78;;;3.10;94.40;;;;;;5029644;28;20100;-82
2022/12/07 01:45:15;;;;;;;124.05;33.08;;;3.00;94.30;;;;;;5028561;28;20378;-81
2022/12/07 01:47:43;;;;;;;103.35;32.70;;;3.00;94.40;;;;;;5029185;28;20074;-82
2022/12/07 01:50:09;;;;;;;98.97;29.00;;;3.00;94.40;;;;;;5030085;28;20105;-82
2022/12/07 01:52:37;;;;;;;101.45;30.85;;;3.00;94.50;;;;;;5027879;28;20052;-83
2022/12/07 01:55:08;;;;;;;92.32;27.23;;;2.90;94.50;;;;;;5029145;28;20017;-75
2022/12/07 01:57:36;;;;;;;96.88;29.45;;;3.00;94.40;;;;;;5027810;28;20048;-74
2022/12/07 02:00:05;;;;;;;98.72;29.98;;;3.00;94.50;;;;;;5031254;28;20693;-76
2022/12/07 02:02:34;;;;;;;94.22;28.90;;;3.00;94.40;;;;;;5027934;28;20034;-73
2022/12/07 02:05:03;;;;;;;92.95;28.25;;;3.00;94.40;;;;;;5029286;28;20521;-74
2022/12/07 02:07:30;;;;;;;95.82;29.65;;;3.00;94.40;;;;;;5027704;28;20027;-80
2022/12/07 02:09:56;;;;;;;93.82;31.35;;;3.00;94.30;;;;;;5028923;28;20490;-74
2022/12/07 02:12:24;;;;;;;94.97;27.58;;;3.00;94.30;;;;;;5027104;28;20136;-75
2022/12/07 02:14:51;;;;;;;104.43;29.95;;;3.00;94.30;;;;;;5024900;28;20053;-76
2022/12/07 02:17:40;;;;;;;95.97;28.90;;;3.00;94.20;;;;;;5028794;28;20111;-77
2022/12/07 02:20:33;;;;;;;89.85;27.90;;;2.90;94.40;;;;;;5028482;28;20489;-73
2022/12/07 02:23:17;;;;;;;88.78;26.65;;;3.00;94.30;;;;;;5027765;28;20497;-73
2022/12/07 02:26:04;;;;;;;87.15;28.92;;;3.00;94.40;;;;;;5027527;28;20485;-79
2022/12/07 02:28:35;;;;;;;87.43;28.40;;;3.00;94.20;;;;;;5027759;28;20025;-76
2022/12/07 02:31:18;;;;;;;76.43;26.27;;;3.00;94.20;;;;;;5028982;28;20030;-81
2022/12/07 02:33:56;;;;;;;77.20;25.45;;;3.00;94.10;;;;;;5036872;28;20133;-77
2022/12/07 02:36:28;;;;;;;79.75;26.70;;;3.00;94.00;;;;;;5027771;28;20033;-81
2022/12/07 02:39:11;;;;;;;76.97;24.00;;;3.00;94.00;;;;;;5028799;28;20033;-76
2022/12/07 02:41:46;;;;;;;82.18;26.15;;;3.00;94.20;;;;;;5028582;28;20036;-82
2022/12/07 02:44:16;;;;;;;75.15;24.83;;;3.00;94.20;;;;;;5026981;28;20510;-79
2022/12/07 02:46:47;;;;;;;72.90;24.02;;;3.00;94.10;;;;;;5028638;28;20026;-79
2022/12/07 02:49:13;;;;;;;56.42;21.00;;;3.00;93.90;;;;;;5027047;28;20444;-82
2022/12/07 02:51:42;;;;;;;70.43;24.90;;;3.00;93.90;;;;;;5027370;28;20025;-80
2022/12/07 02:54:13;;;;;;;68.75;24.52;;;3.00;94.10;;;;;;5028547;28;20120;-84
2022/12/07 02:56:44;;;;;;;59.95;24.00;;;3.00;93.90;;;;;;5030794;28;20647;-83
2022/12/07 02:59:40;;;;;;;63.83;22.42;;;3.00;93.70;;;;;;5029579;28;20433;-84
2022/12/07 03:02:28;;;;;;;66.55;24.30;;;3.00;93.80;;;;;;5031077;28;20111;-76
2022/12/07 03:05:21;;;;;;;67.25;22.90;;;3.00;93.70;;;;;;5026407;28;20034;-78
2022/12/07 03:08:06;;;;;;;67.22;23.33;;;3.10;93.70;;;;;;5030556;28;20022;-82
2022/12/07 03:11:09;;;;;;;68.43;24.88;;;3.10;93.90;;;;;;5033013;28;20034;-76
2022/12/07 03:13:42;;;;;;;60.83;24.67;;;3.10;93.60;;;;;;5029722;28;20033;-82
2022/12/07 03:16:25;;;;;;;69.43;22.40;;;3.10;93.60;;;;;;5030823;28;20521;-82
2022/12/07 03:19:00;;;;;;;61.03;23.13;;;3.10;94.00;;;;;;5024396;28;20053;-83
2022/12/07 03:21:37;;;;;;;71.80;26.20;;;3.10;93.70;;;;;;5029649;28;20436;-83
2022/12/07 03:24:05;;;;;;;;;;;3.10;93.60;;;;;;5031846;28;20500;-84
2022/12/07 03:26:35;;;;;;;64.43;23.63;;;3.10;93.60;;;;;;5032765;28;20705;-84
2022/12/07 03:29:06;;;;;;;73.38;25.25;;;3.10;93.80;;;;;;5034890;28;20036;-83
2022/12/07 03:31:38;;;;;;;77.63;25.50;;;3.10;93.80;;;;;;5031259;28;20072;-83
2022/12/07 03:34:22;;;;;;;71.15;24.35;;;3.10;93.70;;;;;;5032394;28;20033;-79
2022/12/07 03:36:54;;;;;;;66.75;23.63;;;3.10;93.70;;;;;;5032000;28;20159;-80
2022/12/07 03:39:33;;;;;;;68.03;24.20;;;3.10;93.60;;;;;;5031726;28;20032;-78
2022/12/07 03:42:00;;;;;;;80.90;24.52;;;3.10;93.70;;;;;;5030565;28;20029;-77
2022/12/07 03:44:26;;;;;;;81.40;26.08;;;3.10;93.90;;;;;;5032210;28;20485;-78
2022/12/07 03:47:12;;;;;;;76.05;25.90;;;3.10;93.80;;;;;;5031559;28;20036;-76
2022/12/07 03:49:38;;;;;;;85.82;25.77;;;3.10;93.70;;;;;;5031767;28;20057;-77
2022/12/07 03:52:17;;;;;;;67.37;25.27;;;3.10;94.00;;;;;;5030931;28;20068;-77
2022/12/07 03:55:09;;;;;;;72.70;25.42;;;3.10;93.80;;;;;;5031838;28;20066;-81
2022/12/07 03:57:36;;;;;;;86.43;27.65;;;3.10;93.80;;;;;;5031790;28;20544;-82
2022/12/07 04:00:05;;;;;;;87.55;28.88;;;3.10;93.80;;;;;;5064003;28;20033;-83
2022/12/07 04:02:32;;;;;;;83.57;26.25;;;3.10;93.70;;;;;;5031716;28;20104;-82
2022/12/07 04:04:58;;;;;;;81.88;27.58;;;3.10;93.90;;;;;;5031692;28;20037;-82
2022/12/07 04:07:24;;;;;;;87.60;26.58;;;3.10;93.90;;;;;;5031304;28;20075;-79
2022/12/07 04:09:50;;;;;;;71.05;25.67;;;3.10;94.00;;;;;;5031245;28;20124;-80
2022/12/07 04:12:16;;;;;;;70.85;23.17;;;3.10;93.80;;;;;;5031211;28;20112;-77
2022/12/07 04:14:42;;;;;;;71.25;24.33;;;3.10;93.80;;;;;;5030989;28;20045;-76
2022/12/07 04:17:08;;;;;;;68.17;23.17;;;3.20;93.70;;;;;;5029805;28;20140;-79
2022/12/07 04:19:34;;;;;;;64.65;25.33;;;3.10;93.70;;;;;;5027802;28;20090;-78
2022/12/07 04:22:02;;;;;;;70.20;25.05;;;3.10;93.90;;;;;;5029577;28;20034;-75
2022/12/07 04:24:28;;;;;;;64.80;23.80;;;3.10;93.90;;;;;;5031248;28;20029;-76
2022/12/07 04:26:54;;;;;;;61.30;25.80;;;3.10;93.90;;;;;;5031003;28;20485;-78
2022/12/07 04:29:20;;;;;;;61.03;23.15;;;3.10;93.80;;;;;;5030750;28;20456;-80
2022/12/07 04:31:46;;;;;;;57.90;22.02;;;3.10;93.80;;;;;;5030918;28;20048;-79
2022/12/07 04:34:12;;;;;;;70.17;24.30;;;3.10;93.70;;;;;;5029212;28;20025;-78
2022/12/07 04:36:38;;;;;;;;;;;3.10;93.80;;;;;;5029953;28;20041;-74
2022/12/07 04:39:06;;;;;;;63.33;22.05;;;3.10;93.90;;;;;;5030971;28;20347;-76
2022/12/07 04:41:31;;;;;;;61.78;23.33;;;3.10;93.80;;;;;;5028599;28;20034;-75
2022/12/07 04:44:02;;;;;;;66.27;24.30;;;3.10;93.80;;;;;;5029490;28;20421;-76
2022/12/07 04:46:29;;;;;;;60.28;23.77;;;3.10;93.60;;;;;;5027526;28;20284;-79
2022/12/07 04:48:55;;;;;;;62.00;23.10;;;3.10;93.60;;;;;;5030579;28;20528;-74
2022/12/07 04:51:23;;;;;;;67.60;23.73;;;3.10;93.60;;;;;;5030944;28;20036;-77
2022/12/07 04:53:49;;;;;;;73.70;23.20;;;3.10;93.80;;;;;;5029439;28;20072;-77
2022/12/07 04:56:16;;;;;;;63.65;24.23;;;3.10;93.80;;;;;;5026690;28;20021;-81
2022/12/07 04:58:43;;;;;;;72.78;23.83;;;3.10;93.70;;;;;;5028979;28;20041;-80
2022/12/07 05:01:10;;;;;;;59.35;23.95;;;3.20;93.80;;;;;;5026456;28;20382;-80
2022/12/07 05:03:37;;;;;;;62.22;25.05;;;3.10;93.70;;;;;;5029840;28;20100;-80
2022/12/07 05:06:03;;;;;;;69.65;24.17;;;3.10;94.00;;;;;;5029781;28;20125;-81
2022/12/07 05:08:29;;;;;;;65.70;24.45;;;3.20;93.80;;;;;;5029003;28;20076;-82
2022/12/07 05:10:55;;;;;;;71.97;25.88;;;3.10;94.00;;;;;;5035503;28;20037;-76
2022/12/07 05:13:21;;;;;;;68.63;25.20;;;3.10;93.80;;;;;;5029304;28;20041;-82
2022/12/07 05:15:47;;;;;;;70.72;25.58;;;3.20;94.00;;;;;;5029243;28;20034;-75
2022/12/07 05:18:13;;;;;;;59.90;23.42;;;3.20;93.90;;;;;;5028410;28;20029;-75
2022/12/07 05:20:40;;;;;;;75.93;25.13;;;3.20;93.80;;;;;;5027216;28;20083;-77
2022/12/07 05:23:05;;;;;;;71.45;24.58;;;3.20;94.00;;;;;;5028541;28;20509;-76
2022/12/07 05:25:31;;;;;;;71.43;24.80;;;3.20;94.00;;;;;;5029164;28;20075;-78
2022/12/07 05:27:57;;;;;;;69.88;24.50;;;3.20;94.00;;;;;;5028671;28;20038;-80
2022/12/07 05:30:24;;;;;;;70.27;23.10;;;3.20;93.90;;;;;;5027862;28;20083;-77
2022/12/07 05:32:49;;;;;;;67.82;23.70;;;3.20;93.70;;;;;;5028647;28;20112;-80
2022/12/07 05:35:16;;;;;;;65.77;23.70;;;3.20;93.70;;;;;;5025106;28;20121;-76
2022/12/07 05:37:41;;;;;;;71.50;24.10;;;3.10;93.80;;;;;;5027118;28;20069;-81
2022/12/07 05:40:08;;;;;;;69.23;25.80;;;3.20;93.90;;;;;;5028562;28;20437;-80
2022/12/07 05:42:33;;;;;;;69.35;24.02;;;3.20;93.70;;;;;;5028779;28;20099;-80
2022/12/07 05:44:59;;;;;;;70.77;23.17;;;3.20;93.60;;;;;;5026921;28;20481;-81
2022/12/07 05:47:26;;;;;;;71.80;24.52;;;3.20;93.70;;;;;;5028254;28;20489;-81
2022/12/07 05:49:51;;;;;;;79.43;25.77;;;3.20;93.60;;;;;;5026657;28;20037;-81
2022/12/07 05:52:17;;;;;;;75.53;24.93;;;3.20;93.50;;;;;;5027173;28;20390;-80
2022/12/07 05:54:43;;;;;;;71.78;24.30;;;3.20;93.80;;;;;;5028094;28;20072;-80
2022/12/07 05:57:08;;;;;;;74.50;25.38;;;3.20;93.70;;;;;;5026954;28;20444;-74
2022/12/07 05:59:34;;;;;;;79.93;25.58;;;3.30;93.70;;;;;;5028409;28;20028;-74
2022/12/07 06:02:05;;;;;;;84.17;28.03;;;3.30;93.70;;;;;;5028287;28;20040;-79
2022/12/07 06:04:34;;;;;;;74.95;23.73;;;3.20;93.70;;;;;;5028278;28;20042;-77
2022/12/07 06:07:00;;;;;;;78.10;27.10;;;3.20;93.70;;;;;;5027619;28;20026;-81
2022/12/07 06:09:27;;;;;;;77.70;25.38;;;3.20;93.80;;;;;;5028489;28;20098;-80
2022/12/07 06:14:37;;;;;;;78.68;25.33;;;3.20;93.90;;;;;;5026915;28;20401;-78
2022/12/07 06:17:03;;;;;;;77.55;25.92;;;3.20;93.70;;;;;;5027357;28;20033;-79
2022/12/07 06:19:29;;;;;;;87.40;27.98;;;3.20;93.60;;;;;;5027743;28;20045;-81
2022/12/07 06:21:55;;;;;;;77.97;25.07;;;3.20;93.70;;;;;;5026745;28;20022;-78
2022/12/07 06:24:21;;;;;;;83.25;26.70;;;3.20;93.80;;;;;;5027801;28;20847;-81
2022/12/07 06:26:46;;;;;;;89.93;26.60;;;3.30;93.90;;;;;;5027196;28;20119;-75
2022/12/07 06:29:12;;;;;;;102.40;29.63;;;3.30;93.90;;;;;;5026899;28;20020;-77
2022/12/07 06:31:38;;;;;;;91.07;26.30;;;3.20;94.00;;;;;;5028412;28;20040;-76
2022/12/07 06:34:07;;;;;;;92.18;27.65;;;3.20;94.00;;;;;;5025841;28;20501;-78
2022/12/07 06:36:32;;;;;;;89.38;26.88;;;3.30;94.00;;;;;;5027402;28;20030;-72
2022/12/07 06:38:58;;;;;;;86.28;26.27;;;3.30;94.00;;;;;;5028025;28;20029;-74
2022/12/07 06:41:23;;;;;;;89.33;25.57;;;3.30;94.10;;;;;;5028058;28;20034;-75
2022/12/07 06:43:50;;;;;;;106.60;29.10;;;3.30;93.90;;;;;;5031097;28;20342;-80
2022/12/07 06:46:16;;;;;;;96.10;28.00;;;3.30;94.10;;;;;;5030296;28;20033;-75
2022/12/07 06:48:42;;;;;;;92.88;27.77;;;3.30;94.20;;;;;;5032141;28;20041;-74
2022/12/07 06:51:08;;;;;;;108.80;31.63;;;3.30;94.20;;;;;;5032002;28;20041;-79
2022/12/07 06:53:35;;;;;;;116.75;32.22;;;3.30;94.30;;;;;;5030329;28;20061;-76
2022/12/07 06:56:01;;;;;;;;;;;3.30;94.20;;;;;;5032161;28;20065;-79
2022/12/07 06:58:27;;;;;;;125.32;31.65;;;3.30;94.30;;;;;;5031226;28;19916;-77
2022/12/07 07:00:53;;;;;;;106.88;30.67;;;3.30;94.40;;;;;;5025883;28;20064;-79
2022/12/07 07:03:19;;;;;;;108.75;28.45;;;3.30;94.30;;;;;;5031862;28;20091;-79
2022/12/07 07:05:45;;;;;;;114.07;29.88;;;3.20;94.70;;;;;;5031217;28;20055;-77
2022/12/07 07:08:11;;;;;;;110.28;27.98;;;3.30;94.60;;;;;;5031374;28;20112;-75
2022/12/07 07:10:37;;;;;;;91.25;27.88;;;3.30;94.50;;;;;;5030797;28;20017;-80
2022/12/07 07:13:04;;;;;;;84.22;25.00;;;3.30;94.30;;;;;;5030613;28;20046;-75
2022/12/07 07:15:30;;;;;;;95.57;26.75;;;3.30;94.40;;;;;;5029523;28;20123;-74
2022/12/07 07:17:55;;;;;;;85.20;26.70;;;3.30;94.50;;;;;;5031402;28;20060;-74
2022/12/07 07:20:22;;;;;;;80.23;23.83;;;3.30;94.30;;;;;;5030926;28;20040;-75
2022/12/07 07:22:48;;;;;;;80.50;26.42;;;3.10;94.40;;;;;;5030893;28;20810;-75
2022/12/07 07:25:14;;;;;;;82.70;23.17;;;3.00;94.70;;;;;;5030439;28;20385;-75
2022/12/07 07:27:39;;;;;;;85.22;24.00;;;3.10;94.90;;;;;;5031375;28;20029;-75
2022/12/07 07:30:06;;;;;;;95.67;27.30;;;3.20;94.90;;;;;;5030677;28;20049;-76
2022/12/07 07:32:32;;;;;;;93.47;25.67;;;3.20;94.70;;;;;;5029648;28;20064;-75
2022/12/07 07:34:57;;;;;;;96.28;26.98;;;3.20;94.80;;;;;;5031268;28;20017;-73
2022/12/07 07:37:23;;;;;;;75.80;26.50;;;3.30;94.80;;;;;;5030712;28;20365;-72
2022/12/07 07:39:49;;;;;;;86.33;27.50;;;3.40;94.40;;;;;;5028043;28;20029;-74
2022/12/07 07:42:15;;;;;;;99.27;31.27;;;3.40;94.40;;;;;;5032114;28;20303;-73
2022/12/07 07:44:40;;;;;;;88.57;28.95;;;3.40;94.50;;;;;;5029548;28;20043;-74
2022/12/07 07:47:06;;;;;;;103.47;30.23;;;3.40;94.60;;;;;;5021525;28;20112;-73
2022/12/07 07:49:31;;;;;;;82.47;26.60;;;3.40;94.70;;;;;;5028809;28;20076;-76
2022/12/07 07:51:57;;;;;;;86.60;25.00;;;3.50;94.60;;;;;;5028998;28;20103;-73
2022/12/07 07:54:22;;;;;;;80.80;25.47;;;3.50;94.50;;;;;;5028994;28;20326;-75
2022/12/07 07:56:48;;;;;;;63.43;20.80;;;3.50;94.50;;;;;;5028278;28;20031;-74
2022/12/07 07:59:14;;;;;;;65.07;20.07;;;3.50;94.60;;;;;;5027690;28;20036;-75
2022/12/07 08:01:40;;;;;;;76.78;22.85;;;3.50;94.40;;;;;;5026401;28;20040;-76
2022/12/07 08:04:06;;;;;;;77.80;24.43;;;3.60;94.40;;;;;;5028929;28;20025;-77
2022/12/07 08:06:31;;;;;;;76.80;24.80;;;3.50;94.30;;;;;;5027655;28;20037;-77
2022/12/07 08:08:58;;;;;;;70.50;23.17;;;3.60;94.60;;;;;;5029323;28;20029;-74
2022/12/07 08:11:23;;;;;;;77.43;25.05;;;3.60;94.50;;;;;;5028904;28;20037;-75
2022/12/07 08:13:49;;;;;;;76.70;22.75;;;3.60;94.60;;;;;;5024764;28;20884;-76
2022/12/07 08:16:15;;;;;;;82.23;26.20;;;3.60;94.60;;;;;;5025581;28;20414;-73
2022/12/07 08:18:41;;;;;;;;;;;3.60;94.50;;;;;;5030441;28;20037;-73
2022/12/07 08:21:11;;;;;;;57.42;20.00;;;3.70;94.40;;;;;;5028816;28;19909;-73
2022/12/07 08:23:37;;;;;;;60.00;18.75;;;3.70;94.30;;;;;;5030317;28;20029;-71
2022/12/07 08:26:09;;;;;;;48.15;18.63;;;3.60;94.30;;;;;;5030318;28;20448;-71
2022/12/07 08:28:35;;;;;;;54.20;21.55;;;3.70;94.40;;;;;;5029823;28;20033;-74
2022/12/07 08:31:03;;;;;;;52.80;19.55;;;3.60;94.50;;;;;;5028458;28;20456;-74
2022/12/07 08:33:29;;;;;;;51.70;18.33;;;3.60;94.60;;;;;;5027401;28;20463;-73
2022/12/07 08:35:54;;;;;;;51.00;19.93;;;3.70;94.40;;;;;;5027300;28;20120;-73
2022/12/07 08:38:20;;;;;;;50.28;20.42;;;3.70;94.40;;;;;;5029010;28;20501;-72
2022/12/07 08:40:57;;;;;;;63.97;23.98;;;3.70;94.30;;;;;;5028707;28;20037;-72
2022/12/07 08:43:23;;;;;;;;;;;3.80;94.30;;;;;;5026044;28;20025;-72
2022/12/07 08:46:11;;;;;;;56.35;21.45;;;3.80;94.50;;;;;;5028409;28;20400;-71
2022/12/07 08:48:43;;;;;;;59.88;20.85;;;3.80;94.40;;;;;;5026562;28;20503;-72
2022/12/07 08:51:09;;;;;;;50.25;20.48;;;3.80;94.30;;;;;;5026267;28;20037;-73
2022/12/07 08:53:37;;;;;;;50.17;18.70;;;3.90;94.40;;;;;;5026565;28;20469;-72
2022/12/07 08:56:04;;;;;;;48.35;18.50;;;3.80;94.30;;;;;;5024259;28;20037;-73
2022/12/07 08:58:30;;;;;;;49.75;17.38;;;3.80;94.40;;;;;;5028541;28;20026;-73
2022/12/07 09:00:56;;;;;;;48.17;18.50;;;3.90;94.40;;;;;;5028477;28;20084;-73
2022/12/07 09:03:21;;;;;;;54.85;18.70;;;4.00;94.30;;;;;;5028638;28;20421;-72
2022/12/07 09:05:47;;;;;;;50.73;18.00;;;4.00;94.30;;;;;;5027560;28;20539;-73
2022/12/07 09:08:13;;;;;;;48.90;19.05;;;4.00;94.10;;;;;;5027409;28;20036;-74
2022/12/07 09:10:38;;;;;;;48.97;19.65;;;4.00;94.20;;;;;;5028116;28;20029;-74
2022/12/07 09:13:04;;;;;;;58.00;19.57;;;4.00;94.10;;;;;;5027773;28;20041;-72
2022/12/07 09:15:31;;;;;;;61.23;20.63;;;4.00;94.10;;;;;;5027899;28;20660;-73
2022/12/07 09:17:56;;;;;;;54.28;19.42;;;4.10;94.30;;;;;;5028073;28;20029;-74
2022/12/07 09:20:22;;;;;;;47.97;19.53;;;4.10;94.20;;;;;;5028446;28;20440;-73
2022/12/07 09:22:48;;;;;;;53.00;20.15;;;4.10;94.40;;;;;;5028394;28;20053;-72
2022/12/07 09:25:13;;;;;;;57.13;19.87;;;4.10;94.30;;;;;;5026404;28;20109;-72
2022/12/07 09:27:39;;;;;;;58.50;21.77;;;4.10;94.20;;;;;;5027739;28;20280;-74
2022/12/07 09:30:06;;;;;;;49.90;18.65;;;4.10;94.20;;;;;;5027640;28;20079;-73
2022/12/07 09:32:31;;;;;;;50.42;18.15;;;4.20;94.30;;;;;;5027687;28;20048;-73
2022/12/07 09:34:57;;;;;;;41.15;16.88;;;4.20;93.90;;;;;;5026374;28;20033;-74
2022/12/07 09:37:23;;;;;;;48.37;18.00;;;4.20;93.90;;;;;;5027790;28;20533;-73
2022/12/07 09:39:49;;;;;;;49.60;20.05;;;4.10;94.10;;;;;;5027936;28;20311;-74
2022/12/07 09:42:34;;;;;;;53.30;22.02;;;4.20;94.30;;;;;;5028579;28;20042;-72
2022/12/07 09:45:01;;;;;;;52.50;22.17;;;4.20;94.20;;;;;;5028533;28;20017;-74
2022/12/07 09:47:28;;;;;;;57.58;22.65;;;4.30;94.10;;;;;;5028659;28;20056;-74
2022/12/07 09:50:02;;;;;;;52.08;21.77;;;4.30;94.10;;;;;;5026590;28;20025;-72
2022/12/07 09:52:29;;;;;;;48.65;19.35;;;4.30;94.00;;;;;;5025629;28;20811;-73
2022/12/07 09:54:55;;;;;;;53.25;21.95;;;4.20;94.20;;;;;;5028038;28;20478;-73
2022/12/07 09:57:29;;;;;;;53.53;23.20;;;4.20;94.50;;;;;;5028528;28;20061;-74
2022/12/07 09:59:59;;;;;;;57.22;22.50;;;4.30;94.70;;;;;;5028361;28;20076;-74
2022/12/07 10:02:41;;;;;;;50.50;24.67;;;4.30;94.30;;;;;;5028296;28;20065;-75
2022/12/07 10:05:12;;;;;;;55.25;21.73;;;4.30;94.30;;;;;;5043450;28;20168;-73
2022/12/07 10:07:38;;;;;;;55.78;21.95;;;4.30;94.30;;;;;;5026766;28;20029;-74
2022/12/07 10:10:10;;;;;;;49.85;21.65;;;4.30;94.30;;;;;;5027780;28;20420;-73
2022/12/07 10:13:00;;;;;;;59.28;23.17;;;4.40;94.00;;;;;;5028131;28;20045;-73
2022/12/07 10:16:02;;;;;;;59.55;23.42;;;4.40;94.10;;;;;;5025217;28;20025;-73
2022/12/07 10:18:32;;;;;;;39.80;18.13;;;4.40;93.90;;;;;;5022890;28;20028;-73
2022/12/07 10:21:23;;;;;;;41.67;19.85;;;4.40;93.60;;;;;;5025451;28;20041;-72
2022/12/07 10:24:24;;;;;;;42.15;18.92;;;4.50;93.40;;;;;;5026149;28;20068;-74
2022/12/07 10:26:52;;;;;;;42.10;17.90;;;4.40;93.10;;;;;;5012665;28;20043;-75
2022/12/07 10:29:51;;;;;;;43.38;18.95;;;4.40;93.60;;;;;;5027377;28;20484;-74
2022/12/07 10:32:17;;;;;;;49.85;19.83;;;4.40;93.40;;;;;;5021221;28;20111;-73
2022/12/07 10:34:43;;;;;;;46.37;21.20;;;4.50;93.60;;;;;;5024725;28;20029;-72
2022/12/07 10:37:18;;;;;;;34.92;17.05;;;4.60;93.80;;;;;;5026458;28;20037;-74
2022/12/07 10:39:56;;;;;;;39.42;16.98;;;4.60;93.20;;;;;;5027243;28;20030;-73
2022/12/07 10:42:30;;;;;;;37.83;16.55;;;4.60;92.80;;;;;;5024316;28;20037;-74
2022/12/07 10:45:16;;;;;;;33.53;15.73;;;4.60;92.90;;;;;;5025032;28;20029;-73
2022/12/07 10:47:55;;;;;;;33.65;15.73;;;4.70;93.00;;;;;;5026282;28;20029;-73
2022/12/07 10:50:39;;;;;;;35.60;16.83;;;4.70;92.70;;;;;;5026888;28;20036;-74
2022/12/07 10:53:37;;;;;;;35.78;17.23;;;4.70;92.80;;;;;;5026686;28;20041;-74
2022/12/07 10:56:21;;;;;;;31.70;15.73;;;4.70;92.60;;;;;;5057752;28;20401;-73
2022/12/07 10:59:03;;;;;;;30.73;16.15;;;4.70;92.60;;;;;;5027657;28;20056;-71
2022/12/07 11:02:03;;;;;;;37.35;18.25;;;4.80;92.50;;;;;;5027279;28;20496;-72
2022/12/07 11:04:38;;;;;;;38.65;17.90;;;4.70;92.50;;;;;;5027273;28;20049;-73
2022/12/07 11:07:20;;;;;;;33.17;16.60;;;4.90;92.80;;;;;;5027598;28;20428;-72
2022/12/07 11:09:56;;;;;;;34.25;16.52;;;4.80;92.30;;;;;;5027358;28;20400;-72
2022/12/07 11:12:55;;;;;;;40.45;18.58;;;4.80;92.30;;;;;;5025287;28;20084;-73
2022/12/07 11:15:58;;;;;;;38.53;17.38;;;4.80;92.40;;;;;;5023664;28;20021;-72
2022/12/07 11:18:54;;;;;;;33.63;16.33;;;4.90;92.40;;;;;;5025433;28;20497;-74
2022/12/07 11:21:35;;;;;;;40.28;16.50;;;4.90;92.50;;;;;;5021208;28;20025;-76
2022/12/07 11:24:12;;;;;;;32.15;16.67;;;4.90;92.50;;;;;;5040428;28;20116;-73
2022/12/07 11:26:47;;;;;;;42.75;20.30;;;4.90;92.30;;;;;;5026012;28;20033;-71
2022/12/07 11:29:45;;;;;;;41.03;18.30;;;5.00;92.50;;;;;;5029618;28;20116;-71
2022/12/07 11:32:32;;;;;;;37.00;16.83;;;5.00;92.60;;;;;;5030316;28;20494;-73
2022/12/07 11:35:15;;;;;;;39.78;17.55;;;5.00;92.20;;;;;;5028485;28;20045;-73
2022/12/07 11:37:41;;;;;;;38.85;19.42;;;5.00;92.20;;;;;;5030719;28;20072;-73
2022/12/07 11:40:17;;;;;;;38.20;18.13;;;5.00;92.50;;;;;;5029066;28;20029;-72
2022/12/07 11:42:51;;;;;;;38.00;18.73;;;5.00;92.20;;;;;;5030177;28;20042;-72
2022/12/07 11:45:32;;;;;;;42.08;19.35;;;4.90;92.20;;;;;;5031278;28;20063;-73
2022/12/07 11:48:15;;;;;;;36.17;18.90;;;5.00;92.20;;;;;;5028707;28;20049;-74
2022/12/07 11:50:48;;;;;;;38.33;18.58;;;5.00;92.00;;;;;;5033406;28;20117;-74
2022/12/07 11:53:27;;;;;;;37.83;17.33;;;5.00;91.90;;;;;;5030875;28;20029;-74
2022/12/07 11:56:15;;;;;;;38.03;18.95;;;4.90;92.30;;;;;;5029761;28;20472;-74
2022/12/07 11:58:50;;;;;;;37.13;18.65;;;4.90;92.10;;;;;;5030718;28;20052;-76
2022/12/07 12:01:40;;;;;;;41.50;19.17;;;5.00;92.10;;;;;;5032611;28;20409;-74
2022/12/07 12:04:08;;;;;;;42.00;19.52;;;4.90;91.90;;;;;;5030979;28;20033;-74
2022/12/07 12:06:37;;;;;;;32.90;17.50;;;5.00;91.70;;;;;;5031870;28;20452;-73
2022/12/07 12:09:11;;;;;;;41.55;19.42;;;4.90;91.60;;;;;;5030554;28;20037;-74
2022/12/07 12:12:04;;;;;;;37.63;19.02;;;5.00;91.80;;;;;;5026199;28;20042;-74
2022/12/07 12:14:55;;;;;;;40.72;20.95;;;4.90;91.50;;;;;;5030067;28;20060;-74
2022/12/07 12:17:27;;;;;;;38.47;19.00;;;5.00;91.90;;;;;;5031350;28;20037;-73
2022/12/07 12:20:36;;;;;;;46.53;22.45;;;5.00;91.60;;;;;;5031419;28;20032;-74
2022/12/07 12:23:07;;;;;;;41.63;21.45;;;5.00;91.60;;;;;;5029223;28;20029;-72
2022/12/07 12:25:47;;;;;;;52.33;25.55;;;5.00;91.50;;;;;;5030867;28;20025;-74
2022/12/07 12:28:48;;;;;;;47.95;23.77;;;5.00;91.50;;;;;;5028610;28;20110;-73
2022/12/07 12:31:32;;;;;;;45.35;21.23;;;5.00;91.50;;;;;;5029010;28;20051;-74
2022/12/07 12:34:00;;;;;;;41.90;21.08;;;5.10;91.00;;;;;;5031025;28;20021;-74
2022/12/07 12:36:41;;;;;;;43.40;21.85;;;5.10;90.70;;;;;;5029513;28;20485;-73
2022/12/07 12:39:08;;;;;;;47.40;20.92;;;5.10;90.90;;;;;;5026545;28;20037;-72
2022/12/07 12:44:19;;;;;;;45.63;20.63;;;5.10;91.20;;;;;;5028788;28;20034;-73
2022/12/07 12:46:59;;;;;;;43.15;21.45;;;5.10;91.30;;;;;;5030542;28;20037;-72
2022/12/07 12:49:27;;;;;;;46.97;21.65;;;5.00;91.10;;;;;;5027503;28;20025;-73
2022/12/07 12:52:15;;;;;;;44.03;21.30;;;5.00;91.30;;;;;;5042130;28;20037;-73
2022/12/07 12:55:11;;;;;;;42.17;20.00;;;5.00;91.10;;;;;;5025855;28;20486;-73
2022/12/07 12:57:37;;;;;;;45.00;20.83;;;5.00;91.00;;;;;;5026904;28;20783;-73
2022/12/07 13:00:08;;;;;;;36.92;18.40;;;5.00;90.90;;;;;;5028644;28;20057;-73
2022/12/07 13:02:39;;;;;;;43.70;20.33;;;5.00;90.50;;;;;;5027317;28;20033;-73
2022/12/07 13:05:07;;;;;;;39.35;20.08;;;5.00;90.60;;;;;;5029136;28;20056;-73